Great Neck, New York
Current Conditions -  °F | °C
As of 8:51 PM on Monday 24 Nov 2014 (Local Time) from KLGA Reporting Station
Clear Clear  
Wind Chill: 64°   Ceiling: Unl
Heat Index: 64°   Visibility: 10mi
Dew Point: 56°   Wind: 12mph
Humidity: 75%   Direction: 210°SSW
Pressure: 29.71"   Gusts: NA
Location:  40.8°N, 73.73°W
Report Text: KLGA 250151Z 21010KT 10SM CLR 18/13 A2971 RMK AO2 SLP060 T01780133
Loading
Personal Weather Stations






























Interactive Weather Map New forecast layout! Learn more

10-Day Weather Forecast

Advertisements
Track Severe Weather on mobile